createdAt,value
2022-12-18T00:02:45.583Z,28.25
2022-12-18T00:07:47.060Z,28.05
2022-12-18T00:12:48.434Z,28.05
2022-12-18T00:17:49.866Z,26.08
2022-12-18T00:22:51.447Z,28.17
2022-12-18T00:27:52.882Z,27.48
2022-12-18T00:32:54.274Z,26.35
2022-12-18T00:37:55.711Z,25.98
2022-12-18T00:42:57.281Z,25.38
2022-12-18T00:47:58.745Z,26.10
2022-12-18T00:53:00.147Z,26.58
2022-12-18T00:58:01.527Z,24.42
2022-12-18T01:03:04.450Z,25.25
2022-12-18T01:08:05.902Z,25.10
2022-12-18T01:13:07.331Z,26.88
2022-12-18T01:18:08.735Z,25.80
2022-12-18T01:23:10.360Z,26.38
2022-12-18T01:28:12.168Z,25.98
2022-12-18T01:33:13.797Z,25.02
2022-12-18T01:38:15.171Z,25.20
2022-12-18T01:43:16.562Z,25.20
2022-12-18T01:48:17.966Z,23.85
2022-12-18T01:53:21.860Z,24.80
2022-12-18T01:58:25.199Z,23.90
2022-12-18T02:03:26.645Z,24.70
2022-12-18T02:08:46.782Z,25.10
2022-12-18T02:18:52.806Z,25.90
2022-12-18T02:24:02.990Z,25.50
2022-12-18T02:29:25.198Z,25.67
2022-12-18T02:34:31.425Z,23.58
2022-12-18T02:39:34.009Z,25.33
2022-12-18T02:44:36.447Z,27.33
2022-12-18T02:49:58.030Z,26.70
2022-12-18T02:55:11.462Z,27.20
2022-12-18T03:00:16.376Z,24.88
2022-12-18T03:05:21.763Z,24.52
2022-12-18T03:10:26.152Z,25.00
2022-12-18T03:15:32.926Z,24.08
2022-12-18T03:20:36.312Z,22.35
2022-12-18T03:25:40.565Z,24.42
2022-12-18T03:30:42.816Z,24.52
2022-12-18T03:35:44.568Z,23.90
2022-12-18T03:40:46.038Z,22.35
2022-12-18T03:45:52.295Z,23.77
2022-12-18T03:50:53.989Z,23.75
2022-12-18T03:55:56.378Z,23.50
2022-12-18T04:01:02.528Z,24.52
2022-12-18T04:06:04.504Z,24.58
2022-12-18T04:11:06.959Z,24.65
2022-12-18T04:16:08.631Z,24.77
2022-12-18T04:21:10.952Z,25.48
2022-12-18T04:26:12.721Z,26.30
2022-12-18T04:31:14.291Z,25.23
2022-12-18T04:36:15.724Z,27.67
2022-12-18T04:41:17.422Z,25.23
2022-12-18T04:46:18.938Z,26.23
2022-12-18T04:51:26.192Z,24.15
2022-12-18T04:56:28.419Z,25.95
2022-12-18T05:01:34.741Z,25.40
2022-12-18T05:06:36.594Z,25.75
2022-12-18T05:11:38.062Z,25.40
2022-12-18T05:16:39.673Z,25.40
2022-12-18T05:21:41.098Z,25.88
2022-12-18T05:26:42.592Z,26.85
2022-12-18T05:31:44.228Z,23.40
2022-12-18T05:36:46.190Z,23.15
2022-12-18T05:41:47.648Z,24.58
2022-12-18T05:46:49.231Z,22.23
2022-12-18T05:51:50.924Z,23.23
2022-12-18T05:56:52.373Z,23.15
2022-12-18T06:01:54.010Z,22.05
2022-12-18T06:06:55.521Z,20.50
2022-12-18T06:11:56.956Z,20.45
2022-12-18T06:16:58.663Z,21.05
2022-12-18T06:22:00.133Z,20.90
2022-12-18T06:27:01.578Z,20.52
2022-12-18T06:32:03.381Z,19.00
2022-12-18T06:37:04.833Z,20.27
2022-12-18T06:42:06.190Z,19.33
2022-12-18T06:47:07.611Z,19.15
2022-12-18T06:52:09.026Z,19.02
2022-12-18T06:57:10.484Z,19.10
2022-12-18T07:02:12.994Z,17.20
2022-12-18T07:07:14.510Z,16.17
2022-12-18T07:12:15.933Z,16.55
2022-12-18T07:17:17.550Z,16.48
2022-12-18T07:22:18.937Z,17.65
2022-12-18T07:27:20.343Z,15.95
2022-12-18T07:32:21.711Z,16.08
2022-12-18T07:37:23.142Z,16.00
2022-12-18T07:42:33.379Z,15.85
2022-12-18T07:47:35.921Z,14.50
2022-12-18T07:52:37.325Z,16.15
2022-12-18T07:57:50.708Z,14.90
2022-12-18T08:02:55.043Z,15.55
2022-12-18T08:07:57.089Z,15.00
2022-12-18T08:13:03.156Z,14.35
2022-12-18T08:18:10.097Z,14.93
2022-12-18T08:23:14.406Z,15.20
2022-12-18T08:28:17.140Z,15.27
2022-12-18T08:33:18.583Z,14.32
2022-12-18T08:38:20.036Z,14.90
2022-12-18T08:43:40.559Z,15.95
2022-12-18T08:48:44.744Z,16.05
2022-12-18T08:53:46.523Z,15.70
2022-12-18T08:58:47.943Z,15.80
2022-12-18T09:03:49.823Z,17.15
2022-12-18T09:08:53.578Z,15.18
2022-12-18T09:13:55.376Z,14.60
2022-12-18T09:19:00.604Z,15.25
2022-12-18T09:24:02.219Z,15.60
2022-12-18T09:29:03.897Z,14.60
2022-12-18T09:34:05.287Z,15.30
2022-12-18T09:39:08.759Z,15.90
2022-12-18T09:44:19.676Z,15.90
2022-12-18T09:49:22.811Z,14.65
2022-12-18T09:54:27.705Z,15.95
2022-12-18T09:59:36.845Z,14.80
2022-12-18T10:04:38.540Z,14.20
2022-12-18T10:09:39.988Z,14.80
2022-12-18T10:14:44.114Z,16.90
2022-12-18T10:19:52.333Z,14.57
2022-12-18T10:24:56.534Z,13.25
2022-12-18T10:29:59.161Z,15.52
2022-12-18T10:35:01.278Z,13.70
2022-12-18T10:40:08.234Z,13.77
2022-12-18T10:45:14.910Z,13.02
2022-12-18T10:50:47.194Z,14.00
2022-12-18T10:55:54.327Z,13.23
2022-12-18T11:01:15.664Z,13.57
2022-12-18T11:06:18.862Z,13.30
2022-12-18T11:11:22.087Z,12.80
2022-12-18T11:16:26.396Z,13.00
2022-12-18T11:21:27.887Z,12.45
2022-12-18T11:26:38.194Z,12.10
2022-12-18T11:31:39.691Z,12.57
2022-12-18T11:36:46.113Z,13.15
2022-12-18T11:42:12.816Z,13.02
2022-12-18T11:47:20.214Z,13.10
2022-12-18T11:52:25.351Z,12.63
2022-12-18T11:57:27.470Z,13.35
2022-12-18T12:02:43.882Z,12.45
2022-12-18T12:07:53.761Z,11.57
2022-12-18T12:12:55.222Z,13.55
2022-12-18T12:18:22.884Z,13.38
2022-12-18T12:23:39.543Z,13.18
2022-12-18T12:28:46.910Z,12.73
2022-12-18T12:33:54.009Z,12.82
2022-12-18T12:38:58.711Z,13.25
2022-12-18T12:44:02.731Z,12.32
2022-12-18T12:49:10.788Z,13.13
2022-12-18T12:54:17.296Z,12.07
2022-12-18T12:59:22.088Z,11.20
2022-12-18T13:04:33.077Z,13.15
2022-12-18T13:09:36.884Z,12.77
2022-12-18T13:14:41.624Z,12.57
2022-12-18T13:19:43.719Z,13.50
2022-12-18T13:24:45.120Z,12.80
2022-12-18T13:29:47.498Z,12.90
2022-12-18T13:34:49.495Z,12.50
2022-12-18T13:39:50.863Z,12.45
2022-12-18T13:44:52.533Z,13.90
2022-12-18T13:49:54.004Z,12.63
2022-12-18T13:54:59.319Z,12.20
2022-12-18T14:00:18.249Z,12.35
2022-12-18T14:05:25.685Z,13.30
2022-12-18T14:10:44.388Z,13.00
2022-12-18T14:15:48.927Z,12.98
2022-12-18T14:20:53.091Z,12.32
2022-12-18T14:25:54.945Z,12.43
2022-12-18T14:30:57.272Z,13.15
2022-12-18T14:36:05.821Z,13.00
2022-12-18T14:41:10.986Z,13.48
2022-12-18T14:46:33.942Z,11.55
2022-12-18T14:51:36.891Z,12.65
2022-12-18T14:56:45.469Z,14.77
2022-12-18T15:01:48.478Z,14.07
2022-12-18T15:06:49.929Z,12.98
2022-12-18T15:11:55.941Z,11.70
2022-12-18T15:16:57.675Z,13.02
2022-12-18T15:22:04.459Z,12.63
2022-12-18T15:27:30.288Z,11.93
2022-12-18T15:32:31.715Z,11.77
2022-12-18T15:37:35.511Z,11.77
2022-12-18T15:42:58.894Z,11.95
2022-12-18T15:48:00.517Z,12.57
2022-12-18T15:53:01.904Z,12.68
2022-12-18T15:58:04.736Z,12.88
2022-12-18T16:03:06.595Z,13.20
2022-12-18T16:08:08.119Z,14.00
2022-12-18T16:13:13.471Z,12.57
2022-12-18T16:18:15.107Z,13.25
2022-12-18T16:23:16.530Z,12.18
2022-12-18T16:28:17.957Z,13.90
2022-12-18T16:33:19.335Z,12.80
2022-12-18T16:38:21.291Z,12.88
2022-12-18T16:43:25.341Z,12.63
2022-12-18T16:48:28.945Z,11.27
2022-12-18T16:53:33.183Z,13.13
2022-12-18T16:58:35.115Z,11.88
2022-12-18T17:03:36.640Z,13.52
2022-12-18T17:08:38.070Z,13.45
2022-12-18T17:13:39.855Z,12.55
2022-12-18T17:18:41.673Z,13.40
2022-12-18T17:23:46.226Z,14.10
2022-12-18T17:28:48.152Z,13.13
2022-12-18T17:33:50.909Z,14.13
2022-12-18T17:38:53.013Z,13.70
2022-12-18T17:43:55.291Z,13.95
2022-12-18T17:48:57.301Z,13.38
2022-12-18T17:53:58.713Z,14.60
2022-12-18T17:59:00.223Z,13.65
2022-12-18T18:04:02.169Z,15.18
2022-12-18T18:09:03.655Z,15.07
2022-12-18T18:14:06.991Z,16.33
2022-12-18T18:19:13.142Z,15.15
2022-12-18T18:24:16.014Z,14.32
2022-12-18T18:29:19.180Z,14.57
2022-12-18T18:34:22.026Z,15.63
2022-12-18T18:39:23.854Z,14.43
2022-12-18T18:44:26.075Z,15.57
2022-12-18T18:49:28.583Z,16.80
2022-12-18T18:54:31.091Z,17.33
2022-12-18T18:59:32.478Z,16.70
2022-12-18T19:04:34.256Z,16.02
2022-12-18T19:09:38.402Z,16.63
2022-12-18T19:14:39.804Z,16.73
2022-12-18T19:19:43.496Z,16.88
2022-12-18T19:24:45.111Z,18.00
2022-12-18T19:29:46.698Z,18.17
2022-12-18T19:34:48.164Z,17.58
2022-12-18T19:39:50.790Z,17.27
2022-12-18T19:44:52.296Z,17.75
2022-12-18T19:49:53.804Z,18.33
2022-12-18T19:54:55.246Z,16.90
2022-12-18T19:59:56.725Z,17.92
2022-12-18T20:04:58.109Z,16.98
2022-12-18T20:10:05.466Z,18.92
2022-12-18T20:15:10.892Z,16.70
2022-12-18T20:20:12.476Z,18.00
2022-12-18T20:25:14.838Z,18.55
2022-12-18T20:30:16.816Z,18.73
2022-12-18T20:35:18.301Z,18.80
2022-12-18T20:40:20.521Z,17.80
2022-12-18T20:45:21.964Z,17.63
2022-12-18T20:50:23.476Z,16.73
2022-12-18T20:55:24.858Z,18.33
2022-12-18T21:00:26.241Z,20.33
2022-12-18T21:05:27.619Z,17.33
2022-12-18T21:10:29.035Z,18.08
2022-12-18T21:15:30.481Z,18.02
2022-12-18T21:20:31.935Z,17.17
2022-12-18T21:25:33.577Z,17.30
2022-12-18T21:30:35.077Z,18.27
2022-12-18T21:35:36.636Z,19.02
2022-12-18T21:40:39.067Z,19.63
2022-12-18T21:45:40.535Z,18.83
2022-12-18T21:50:42.003Z,18.73
2022-12-18T21:55:43.403Z,18.95
2022-12-18T22:00:48.634Z,18.13
2022-12-18T22:05:56.203Z,17.25
2022-12-18T22:11:12.153Z,18.10
2022-12-18T22:16:13.710Z,18.23
2022-12-18T22:21:29.374Z,17.92
2022-12-18T22:26:37.916Z,18.58
2022-12-18T22:31:41.517Z,18.88
2022-12-18T22:36:44.670Z,19.27
2022-12-18T22:41:46.418Z,18.02
2022-12-18T22:47:02.898Z,18.83
2022-12-18T22:52:09.600Z,19.73
2022-12-18T22:57:11.084Z,19.58
2022-12-18T23:02:12.594Z,19.65
2022-12-18T23:07:14.166Z,20.67
2022-12-18T23:12:16.568Z,20.45
2022-12-18T23:17:18.111Z,21.35
2022-12-18T23:22:19.489Z,19.02
2022-12-18T23:27:20.915Z,20.38
2022-12-18T23:32:22.326Z,20.27
2022-12-18T23:37:57.082Z,20.20
2022-12-18T23:42:45.051Z,20.70
2022-12-18T23:47:47.093Z,20.83
2022-12-18T23:52:52.408Z,22.05
2022-12-18T23:57:53.813Z,21.02
